sensor_id;sensor_type;location;lat;lon;timestamp;pressure;altitude;pressure_sealevel;temperature;humidity
30636;BME280;17400;52.392;9.750;2023-05-08T00:00:41;101712.41;;;10.16;100.00
30636;BME280;17400;52.392;9.750;2023-05-08T00:03:09;101718.00;;;10.23;100.00
30636;BME280;17400;52.392;9.750;2023-05-08T00:05:37;101714.97;;;10.17;100.00
30636;BME280;17400;52.392;9.750;2023-05-08T00:08:07;101715.28;;;10.31;100.00
30636;BME280;17400;52.392;9.750;2023-05-08T00:10:36;101708.88;;;10.32;100.00
30636;BME280;17400;52.392;9.750;2023-05-08T00:13:04;101716.81;;;10.33;100.00
30636;BME280;17400;52.392;9.750;2023-05-08T00:15:32;101717.47;;;10.27;100.00
30636;BME280;17400;52.392;9.750;2023-05-08T00:17:59;101714.28;;;10.15;100.00
30636;BME280;17400;52.392;9.750;2023-05-08T00:20:27;101714.28;;;10.15;100.00
30636;BME280;17400;52.392;9.750;2023-05-08T00:22:55;101706.50;;;10.21;100.00
30636;BME280;17400;52.392;9.750;2023-05-08T00:25:23;101712.44;;;10.24;100.00
30636;BME280;17400;52.392;9.750;2023-05-08T00:27:52;101715.31;;;10.23;100.00
30636;BME280;17400;52.392;9.750;2023-05-08T00:30:21;101717.31;;;10.37;100.00
30636;BME280;17400;52.392;9.750;2023-05-08T00:32:48;101723.06;;;10.26;100.00
30636;BME280;17400;52.392;9.750;2023-05-08T00:35:16;101716.31;;;10.30;100.00
30636;BME280;17400;52.392;9.750;2023-05-08T00:37:44;101720.88;;;10.13;100.00
30636;BME280;17400;52.392;9.750;2023-05-08T00:40:12;101717.84;;;10.24;100.00
30636;BME280;17400;52.392;9.750;2023-05-08T00:42:40;101723.44;;;10.23;100.00
30636;BME280;17400;52.392;9.750;2023-05-08T00:45:10;101719.19;;;10.12;100.00
30636;BME280;17400;52.392;9.750;2023-05-08T00:47:38;101719.88;;;10.06;100.00
30636;BME280;17400;52.392;9.750;2023-05-08T00:50:07;101720.53;;;9.99;100.00
30636;BME280;17400;52.392;9.750;2023-05-08T00:52:36;101716.81;;;10.00;100.00
30636;BME280;17400;52.392;9.750;2023-05-08T00:55:05;101715.81;;;10.10;100.00
30636;BME280;17400;52.392;9.750;2023-05-08T00:57:34;101719.53;;;10.09;100.00
30636;BME280;17400;52.392;9.750;2023-05-08T01:00:04;101720.03;;;10.04;100.00
30636;BME280;17400;52.392;9.750;2023-05-08T01:02:34;101722.91;;;9.94;100.00
30636;BME280;17400;52.392;9.750;2023-05-08T01:05:02;101727.47;;;9.94;100.00
30636;BME280;17400;52.392;9.750;2023-05-08T01:07:31;101716.97;;;9.91;100.00
30636;BME280;17400;52.392;9.750;2023-05-08T01:09:59;101720.72;;;9.98;100.00
30636;BME280;17400;52.392;9.750;2023-05-08T01:12:35;101709.38;;;9.94;100.00
30636;BME280;17400;52.392;9.750;2023-05-08T01:15:10;101699.06;;;9.98;100.00
30636;BME280;17400;52.392;9.750;2023-05-08T01:17:48;101704.81;;;10.03;100.00
30636;BME280;17400;52.392;9.750;2023-05-08T01:20:25;101715.66;;;9.95;100.00
30636;BME280;17400;52.392;9.750;2023-05-08T01:23:08;101699.56;;;10.10;100.00
30636;BME280;17400;52.392;9.750;2023-05-08T01:28:58;101690.59;;;10.01;100.00
30636;BME280;17400;52.392;9.750;2023-05-08T01:31:39;101690.25;;;9.96;100.00
30636;BME280;17400;52.392;9.750;2023-05-08T01:34:14;101709.88;;;9.73;100.00
30636;BME280;17400;52.392;9.750;2023-05-08T01:36:50;101700.75;;;9.66;100.00
30636;BME280;17400;52.392;9.750;2023-05-08T01:39:20;101699.22;;;9.55;100.00
30636;BME280;17400;52.392;9.750;2023-05-08T01:41:56;101701.91;;;9.55;100.00
30636;BME280;17400;52.392;9.750;2023-05-08T01:44:28;101702.22;;;9.52;100.00
30636;BME280;17400;52.392;9.750;2023-05-08T01:46:58;101699.69;;;9.59;100.00
30636;BME280;17400;52.392;9.750;2023-05-08T01:49:37;101702.22;;;9.52;100.00
30636;BME280;17400;52.392;9.750;2023-05-08T01:52:09;101702.41;;;9.59;100.00
30636;BME280;17400;52.392;9.750;2023-05-08T01:54:43;101712.22;;;9.68;100.00
30636;BME280;17400;52.392;9.750;2023-05-08T01:57:13;101710.84;;;9.56;100.00
30636;BME280;17400;52.392;9.750;2023-05-08T01:59:43;101715.09;;;9.58;100.00
30636;BME280;17400;52.392;9.750;2023-05-08T02:02:12;101715.44;;;9.63;100.00
30636;BME280;17400;52.392;9.750;2023-05-08T02:04:43;101712.22;;;9.68;100.00
30636;BME280;17400;52.392;9.750;2023-05-08T02:07:11;101712.22;;;9.60;100.00
30636;BME280;17400;52.392;9.750;2023-05-08T02:09:40;101707.78;;;9.42;100.00
30636;BME280;17400;52.392;9.750;2023-05-08T02:12:11;101704.91;;;9.44;100.00
30636;BME280;17400;52.392;9.750;2023-05-08T02:14:41;101704.41;;;9.48;100.00
30636;BME280;17400;52.392;9.750;2023-05-08T02:17:10;101705.06;;;9.34;100.00
30636;BME280;17400;52.392;9.750;2023-05-08T02:19:39;101713.50;;;9.39;100.00
30636;BME280;17400;52.392;9.750;2023-05-08T02:22:10;101708.25;;;9.29;100.00
30636;BME280;17400;52.392;9.750;2023-05-08T02:24:39;101704.91;;;9.44;100.00
30636;BME280;17400;52.392;9.750;2023-05-08T02:27:09;101708.25;;;9.29;100.00
30636;BME280;17400;52.392;9.750;2023-05-08T02:29:38;101714.03;;;9.43;100.00
30636;BME280;17400;52.392;9.750;2023-05-08T02:32:07;101708.13;;;9.47;100.00
30636;BME280;17400;52.392;9.750;2023-05-08T02:34:35;101708.97;;;9.56;100.00
30636;BME280;17400;52.392;9.750;2023-05-08T02:37:12;101717.88;;;9.32;100.00
30636;BME280;17400;52.392;9.750;2023-05-08T02:39:41;101714.19;;;9.41;100.00
30636;BME280;17400;52.392;9.750;2023-05-08T02:42:10;101716.91;;;9.41;100.00
30636;BME280;17400;52.392;9.750;2023-05-08T02:44:38;101709.50;;;9.43;100.00
30636;BME280;17400;52.392;9.750;2023-05-08T02:47:14;101706.56;;;9.37;100.00
30636;BME280;17400;52.392;9.750;2023-05-08T02:49:50;101715.00;;;9.33;100.00
30636;BME280;17400;52.392;9.750;2023-05-08T02:52:27;101711.78;;;9.30;100.00
30636;BME280;17400;52.392;9.750;2023-05-08T02:54:59;101714.09;;;9.16;100.00
30636;BME280;17400;52.392;9.750;2023-05-08T02:57:34;101708.59;;;9.34;100.00
30636;BME280;17400;52.392;9.750;2023-05-08T03:00:11;101715.88;;;9.34;100.00
30636;BME280;17400;52.392;9.750;2023-05-08T03:02:43;101709.25;;;9.28;100.00
30636;BME280;17400;52.392;9.750;2023-05-08T03:05:17;101708.41;;;9.20;100.00
30636;BME280;17400;52.392;9.750;2023-05-08T03:07:50;101708.22;;;9.21;100.00
30636;BME280;17400;52.392;9.750;2023-05-08T03:10:23;101694.50;;;9.06;100.00
30636;BME280;17400;52.392;9.750;2023-05-08T03:12:53;101701.56;;;8.99;100.00
30636;BME280;17400;52.392;9.750;2023-05-08T03:15:24;101701.22;;;9.02;100.00
30636;BME280;17400;52.392;9.750;2023-05-08T03:17:55;101700.84;;;8.97;100.00
30636;BME280;17400;52.392;9.750;2023-05-08T03:20:25;101704.63;;;9.04;100.00
30636;BME280;17400;52.392;9.750;2023-05-08T03:22:59;101700.31;;;8.85;100.00
30636;BME280;17400;52.392;9.750;2023-05-08T03:25:30;101705.41;;;8.88;100.00
30636;BME280;17400;52.392;9.750;2023-05-08T03:28:00;101697.81;;;8.92;100.00
30636;BME280;17400;52.392;9.750;2023-05-08T03:30:30;101691.38;;;8.84;100.00
30636;BME280;17400;52.392;9.750;2023-05-08T03:33:00;101698.31;;;8.95;100.00
30636;BME280;17400;52.392;9.750;2023-05-08T03:35:30;101690.38;;;8.86;100.00
30636;BME280;17400;52.392;9.750;2023-05-08T03:37:59;101694.06;;;8.84;100.00
30636;BME280;17400;52.392;9.750;2023-05-08T03:40:28;101698.63;;;8.84;100.00
30636;BME280;17400;52.392;9.750;2023-05-08T03:42:57;101685.34;;;8.99;100.00
30636;BME280;17400;52.392;9.750;2023-05-08T03:45:27;101680.13;;;8.97;100.00
30636;BME280;17400;52.392;9.750;2023-05-08T03:47:55;101685.72;;;8.70;100.00
30636;BME280;17400;52.392;9.750;2023-05-08T03:50:24;101683.00;;;8.61;100.00
30636;BME280;17400;52.392;9.750;2023-05-08T03:52:53;101686.69;;;8.60;100.00
30636;BME280;17400;52.392;9.750;2023-05-08T03:55:22;101691.75;;;8.63;100.00
30636;BME280;17400;52.392;9.750;2023-05-08T03:57:56;101686.56;;;8.70;100.00
30636;BME280;17400;52.392;9.750;2023-05-08T04:00:32;101687.66;;;8.86;100.00
30636;BME280;17400;52.392;9.750;2023-05-08T04:03:10;101693.41;;;8.82;100.00
30636;BME280;17400;52.392;9.750;2023-05-08T04:05:47;101698.38;;;8.69;100.00
30636;BME280;17400;52.392;9.750;2023-05-08T04:08:20;101689.63;;;8.75;100.00
30636;BME280;17400;52.392;9.750;2023-05-08T04:10:56;101695.66;;;8.69;100.00
30636;BME280;17400;52.392;9.750;2023-05-08T04:13:27;101691.28;;;8.68;100.00
30636;BME280;17400;52.392;9.750;2023-05-08T04:16:04;101692.56;;;8.56;100.00
30636;BME280;17400;52.392;9.750;2023-05-08T04:18:35;101695.25;;;8.56;100.00
30636;BME280;17400;52.392;9.750;2023-05-08T04:21:07;101695.97;;;8.58;100.00
30636;BME280;17400;52.392;9.750;2023-05-08T04:23:37;101696.50;;;8.61;100.00
30636;BME280;17400;52.392;9.750;2023-05-08T04:26:08;101696.78;;;8.58;100.00
30636;BME280;17400;52.392;9.750;2023-05-08T04:28:38;101702.47;;;8.73;100.00
30636;BME280;17400;52.392;9.750;2023-05-08T04:31:06;101704.13;;;8.74;100.00
30636;BME280;17400;52.392;9.750;2023-05-08T04:33:35;101702.38;;;8.65;100.00
30636;BME280;17400;52.392;9.750;2023-05-08T04:36:04;101705.41;;;8.88;100.00
30636;BME280;17400;52.392;9.750;2023-05-08T04:38:35;101715.91;;;8.99;100.00
30636;BME280;17400;52.392;9.750;2023-05-08T04:41:03;101720.19;;;9.10;100.00
30636;BME280;17400;52.392;9.750;2023-05-08T04:43:32;101714.63;;;9.20;100.00
30636;BME280;17400;52.392;9.750;2023-05-08T04:46:00;101714.09;;;9.16;100.00
30636;BME280;17400;52.392;9.750;2023-05-08T04:48:28;101719.00;;;9.13;100.00
30636;BME280;17400;52.392;9.750;2023-05-08T04:50:58;101718.88;;;9.23;100.00
30636;BME280;17400;52.392;9.750;2023-05-08T04:53:26;101711.09;;;9.20;100.00
30636;BME280;17400;52.392;9.750;2023-05-08T04:55:54;101712.75;;;9.12;100.00
30636;BME280;17400;52.392;9.750;2023-05-08T04:58:23;101717.41;;;8.94;100.00
30636;BME280;17400;52.392;9.750;2023-05-08T05:00:52;101718.47;;;9.01;100.00
30636;BME280;17400;52.392;9.750;2023-05-08T05:03:19;101709.63;;;8.91;100.00
30636;BME280;17400;52.392;9.750;2023-05-08T05:05:47;101724.47;;;8.87;100.00
30636;BME280;17400;52.392;9.750;2023-05-08T05:08:15;101726.38;;;8.94;100.00
30636;BME280;17400;52.392;9.750;2023-05-08T05:10:42;101719.38;;;8.83;100.00
30636;BME280;17400;52.392;9.750;2023-05-08T05:13:10;101721.28;;;8.99;100.00
30636;BME280;17400;52.392;9.750;2023-05-08T05:15:40;101723.16;;;8.99;100.00
30636;BME280;17400;52.392;9.750;2023-05-08T05:18:09;101725.38;;;9.04;100.00
30636;BME280;17400;52.392;9.750;2023-05-08T05:20:38;101714.41;;;9.05;100.00
30636;BME280;17400;52.392;9.750;2023-05-08T05:23:06;101717.72;;;8.91;100.00
30636;BME280;17400;52.392;9.750;2023-05-08T05:25:34;101715.41;;;9.04;100.00
30636;BME280;17400;52.392;9.750;2023-05-08T05:28:02;101720.31;;;8.74;100.00
30636;BME280;17400;52.392;9.750;2023-05-08T05:30:30;101719.16;;;8.77;100.00
30636;BME280;17400;52.392;9.750;2023-05-08T05:32:58;101724.25;;;8.80;100.00
30636;BME280;17400;52.392;9.750;2023-05-08T05:35:27;101728.03;;;8.95;100.00
30636;BME280;17400;52.392;9.750;2023-05-08T05:37:56;101729.97;;;9.11;100.00
30636;BME280;17400;52.392;9.750;2023-05-08T05:40:24;101737.44;;;9.26;100.00
30636;BME280;17400;52.392;9.750;2023-05-08T05:42:52;101734.25;;;9.22;100.00
30636;BME280;17400;52.392;9.750;2023-05-08T05:45:19;101734.09;;;9.32;100.00
30636;BME280;17400;52.392;9.750;2023-05-08T05:47:47;101732.38;;;9.23;100.00
30636;BME280;17400;52.392;9.750;2023-05-08T05:50:16;101733.91;;;9.25;100.00
30636;BME280;17400;52.392;9.750;2023-05-08T05:52:45;101731.56;;;9.30;100.00
30636;BME280;17400;52.392;9.750;2023-05-08T05:55:14;101734.81;;;9.42;100.00
30636;BME280;17400;52.392;9.750;2023-05-08T05:57:43;101737.81;;;9.31;100.00
30636;BME280;17400;52.392;9.750;2023-05-08T06:00:11;101738.16;;;9.36;100.00
30636;BME280;17400;52.392;9.750;2023-05-08T06:02:39;101737.97;;;9.29;100.00
30636;BME280;17400;52.392;9.750;2023-05-08T06:05:08;101732.94;;;9.34;100.00
30636;BME280;17400;52.392;9.750;2023-05-08T06:07:37;101737.19;;;9.45;100.00
30636;BME280;17400;52.392;9.750;2023-05-08T06:10:07;101736.38;;;9.61;100.00
30636;BME280;17400;52.392;9.750;2023-05-08T06:12:35;101743.50;;;9.71;100.00
30636;BME280;17400;52.392;9.750;2023-05-08T06:15:04;101740.31;;;9.83;100.00
30636;BME280;17400;52.392;9.750;2023-05-08T06:17:31;101743.69;;;9.94;100.00
30636;BME280;17400;52.392;9.750;2023-05-08T06:19:59;101740.31;;;9.92;100.00
30636;BME280;17400;52.392;9.750;2023-05-08T06:22:27;101741.31;;;9.82;100.00
30636;BME280;17400;52.392;9.750;2023-05-08T06:24:55;101747.75;;;9.90;100.00
30636;BME280;17400;52.392;9.750;2023-05-08T06:27:24;101745.41;;;9.95;100.00
30636;BME280;17400;52.392;9.750;2023-05-08T06:29:52;101747.94;;;10.05;100.00
30636;BME280;17400;52.392;9.750;2023-05-08T06:32:20;101746.06;;;10.05;100.00
30636;BME280;17400;52.392;9.750;2023-05-08T06:34:48;101746.22;;;10.04;100.00
30636;BME280;17400;52.392;9.750;2023-05-08T06:37:22;101747.75;;;10.14;100.00
30636;BME280;17400;52.392;9.750;2023-05-08T06:39:54;101748.28;;;10.10;100.00
30636;BME280;17400;52.392;9.750;2023-05-08T06:42:38;101747.09;;;10.37;100.00
30636;BME280;17400;52.392;9.750;2023-05-08T06:45:07;101743.88;;;10.33;100.00
30636;BME280;17400;52.392;9.750;2023-05-08T06:47:35;101736.78;;;10.32;100.00
30636;BME280;17400;52.392;9.750;2023-05-08T06:50:04;101736.78;;;10.32;100.00
30636;BME280;17400;52.392;9.750;2023-05-08T06:52:32;101747.63;;;10.41;100.00
30636;BME280;17400;52.392;9.750;2023-05-08T06:54:59;101742.34;;;10.47;100.00
30636;BME280;17400;52.392;9.750;2023-05-08T06:57:27;101748.41;;;10.66;100.00
30636;BME280;17400;52.392;9.750;2023-05-08T06:59:57;101754.03;;;10.56;100.00
30636;BME280;17400;52.392;9.750;2023-05-08T07:02:24;101748.25;;;10.67;100.00
30636;BME280;17400;52.392;9.750;2023-05-08T07:04:52;101749.44;;;10.73;100.00
30636;BME280;17400;52.392;9.750;2023-05-08T07:07:20;101752.31;;;10.72;100.00
30636;BME280;17400;52.392;9.750;2023-05-08T07:09:48;101747.53;;;10.82;100.00
30636;BME280;17400;52.392;9.750;2023-05-08T07:12:15;101740.38;;;10.97;100.00
30636;BME280;17400;52.392;9.750;2023-05-08T07:14:43;101741.06;;;10.91;100.00
30636;BME280;17400;52.392;9.750;2023-05-08T07:17:13;101739.88;;;10.94;100.00
30636;BME280;17400;52.392;9.750;2023-05-08T07:19:41;101744.31;;;10.87;100.00
30636;BME280;17400;52.392;9.750;2023-05-08T07:22:08;101740.38;;;10.97;100.00
30636;BME280;17400;52.392;9.750;2023-05-08T07:24:36;101742.56;;;11.10;100.00
30636;BME280;17400;52.392;9.750;2023-05-08T07:27:04;101737.09;;;11.19;100.00
30636;BME280;17400;52.392;9.750;2023-05-08T07:29:31;101743.84;;;11.23;100.00
30636;BME280;17400;52.392;9.750;2023-05-08T07:32:01;101738.50;;;11.38;100.00
30636;BME280;17400;52.392;9.750;2023-05-08T07:34:32;101735.28;;;11.42;100.00
30636;BME280;17400;52.392;9.750;2023-05-08T07:37:00;101731.88;;;11.48;100.00
30636;BME280;17400;52.392;9.750;2023-05-08T07:39:28;101736.22;;;11.58;100.00
30636;BME280;17400;52.392;9.750;2023-05-08T07:41:55;101731.75;;;11.65;100.00
30636;BME280;17400;52.392;9.750;2023-05-08T07:44:23;101742.66;;;11.57;100.00
30636;BME280;17400;52.392;9.750;2023-05-08T07:46:51;101741.22;;;11.69;100.00
30636;BME280;17400;52.392;9.750;2023-05-08T07:49:19;101736.16;;;11.66;100.00
30636;BME280;17400;52.392;9.750;2023-05-08T07:51:47;101736.53;;;11.63;100.00
30636;BME280;17400;52.392;9.750;2023-05-08T07:54:15;101735.63;;;11.71;100.00
30636;BME280;17400;52.392;9.750;2023-05-08T07:56:43;101738.69;;;11.99;100.00
30636;BME280;17400;52.392;9.750;2023-05-08T07:59:10;101739.44;;;12.08;100.00
30636;BME280;17400;52.392;9.750;2023-05-08T08:01:38;101747.75;;;12.14;100.00
30636;BME280;17400;52.392;9.750;2023-05-08T08:04:08;101740.91;;;12.19;100.00
30636;BME280;17400;52.392;9.750;2023-05-08T08:06:35;101733.41;;;12.21;100.00
30636;BME280;17400;52.392;9.750;2023-05-08T08:09:04;101753.00;;;12.31;100.00
30636;BME280;17400;52.392;9.750;2023-05-08T08:11:32;101750.97;;;12.33;100.00
30636;BME280;17400;52.392;9.750;2023-05-08T08:14:00;101738.03;;;12.35;100.00
30636;BME280;17400;52.392;9.750;2023-05-08T08:16:41;101738.03;;;12.35;100.00
30636;BME280;17400;52.392;9.750;2023-05-08T08:19:09;101740.31;;;12.46;100.00
30636;BME280;17400;52.392;9.750;2023-05-08T08:21:41;101733.22;;;12.60;100.00
30636;BME280;17400;52.392;9.750;2023-05-08T08:24:10;101739.66;;;12.59;100.00
30636;BME280;17400;52.392;9.750;2023-05-08T08:26:37;101735.28;;;12.73;100.00
30636;BME280;17400;52.392;9.750;2023-05-08T08:29:05;101733.88;;;12.77;100.00
30636;BME280;17400;52.392;9.750;2023-05-08T08:31:32;101732.66;;;12.80;99.15
30636;BME280;17400;52.392;9.750;2023-05-08T08:34:00;101721.41;;;12.83;98.68
30636;BME280;17400;52.392;9.750;2023-05-08T08:36:28;101729.84;;;12.88;98.84
30636;BME280;17400;52.392;9.750;2023-05-08T08:38:56;101728.19;;;13.02;98.55
30636;BME280;17400;52.392;9.750;2023-05-08T08:41:25;101739.59;;;13.12;97.69
30636;BME280;17400;52.392;9.750;2023-05-08T08:43:53;101730.03;;;13.16;96.87
30636;BME280;17400;52.392;9.750;2023-05-08T08:46:23;101733.94;;;13.29;97.71
30636;BME280;17400;52.392;9.750;2023-05-08T08:48:53;101723.81;;;13.23;97.13
30636;BME280;17400;52.392;9.750;2023-05-08T08:51:25;101714.81;;;13.37;96.71
30636;BME280;17400;52.392;9.750;2023-05-08T08:54:02;101720.41;;;13.50;96.29
30636;BME280;17400;52.392;9.750;2023-05-08T08:56:33;101721.91;;;13.53;94.29
30636;BME280;17400;52.392;9.750;2023-05-08T08:59:03;101727.53;;;13.52;93.95
30636;BME280;17400;52.392;9.750;2023-05-08T09:01:34;101725.84;;;13.50;93.37
30636;BME280;17400;52.392;9.750;2023-05-08T09:04:02;101717.06;;;13.48;94.34
30636;BME280;17400;52.392;9.750;2023-05-08T09:06:34;101717.88;;;13.64;94.38
30636;BME280;17400;52.392;9.750;2023-05-08T09:09:02;101725.25;;;13.70;92.65
30636;BME280;17400;52.392;9.750;2023-05-08T09:11:32;101705.72;;;13.66;91.53
30636;BME280;17400;52.392;9.750;2023-05-08T09:14:00;101700.38;;;13.73;92.47
30636;BME280;17400;52.392;9.750;2023-05-08T09:16:29;101716.31;;;13.76;93.06
30636;BME280;17400;52.392;9.750;2023-05-08T09:18:56;101697.06;;;13.78;93.53
30636;BME280;17400;52.392;9.750;2023-05-08T09:21:25;101702.63;;;13.91;92.79
30636;BME280;17400;52.392;9.750;2023-05-08T09:23:54;101694.53;;;13.98;93.21
30636;BME280;17400;52.392;9.750;2023-05-08T09:26:26;101699.59;;;14.01;91.89
30636;BME280;17400;52.392;9.750;2023-05-08T09:29:09;101699.06;;;13.91;91.56
30636;BME280;17400;52.392;9.750;2023-05-08T09:31:38;101697.97;;;14.07;92.41
30636;BME280;17400;52.392;9.750;2023-05-08T09:34:06;101712.88;;;14.11;92.53
30636;BME280;17400;52.392;9.750;2023-05-08T09:36:34;101705.16;;;14.14;87.62
30636;BME280;17400;52.392;9.750;2023-05-08T09:39:02;101694.50;;;14.20;87.90
30636;BME280;17400;52.392;9.750;2023-05-08T09:41:30;101685.41;;;14.34;87.09
30636;BME280;17400;52.392;9.750;2023-05-08T09:44:02;101692.50;;;14.35;85.76
30636;BME280;17400;52.392;9.750;2023-05-08T09:46:32;101700.97;;;14.47;85.91
30636;BME280;17400;52.392;9.750;2023-05-08T09:49:02;101695.78;;;14.52;85.26
30636;BME280;17400;52.392;9.750;2023-05-08T09:51:31;101708.53;;;14.45;84.79
30636;BME280;17400;52.392;9.750;2023-05-08T09:53:58;101692.22;;;14.52;82.30
30636;BME280;17400;52.392;9.750;2023-05-08T09:56:34;101701.28;;;14.59;82.28
30636;BME280;17400;52.392;9.750;2023-05-08T09:59:03;101693.31;;;14.57;82.49
30636;BME280;17400;52.392;9.750;2023-05-08T10:01:34;101695.81;;;14.59;83.13
30636;BME280;17400;52.392;9.750;2023-05-08T10:04:02;101684.16;;;14.65;82.06
30636;BME280;17400;52.392;9.750;2023-05-08T10:06:31;101678.53;;;14.73;82.66
30636;BME280;17400;52.392;9.750;2023-05-08T10:09:06;101686.41;;;14.90;82.55
30636;BME280;17400;52.392;9.750;2023-05-08T10:11:34;101666.75;;;15.08;81.94
30636;BME280;17400;52.392;9.750;2023-05-08T10:14:02;101681.88;;;15.10;78.43
30636;BME280;17400;52.392;9.750;2023-05-08T10:16:38;101685.22;;;15.06;78.99
30636;BME280;17400;52.392;9.750;2023-05-08T10:19:12;101678.69;;;15.07;78.36
30636;BME280;17400;52.392;9.750;2023-05-08T10:21:41;101690.72;;;15.19;78.60
30636;BME280;17400;52.392;9.750;2023-05-08T10:24:13;101687.38;;;15.24;78.15
30636;BME280;17400;52.392;9.750;2023-05-08T10:26:43;101688.44;;;15.23;75.05
30636;BME280;17400;52.392;9.750;2023-05-08T10:29:32;101686.97;;;15.27;75.86
30636;BME280;17400;52.392;9.750;2023-05-08T10:32:02;101692.84;;;15.30;73.88
30636;BME280;17400;52.392;9.750;2023-05-08T10:34:39;101687.41;;;15.37;71.22
30636;BME280;17400;52.392;9.750;2023-05-08T10:37:08;101684.91;;;15.42;69.18
30636;BME280;17400;52.392;9.750;2023-05-08T10:39:37;101671.91;;;15.44;70.42
30636;BME280;17400;52.392;9.750;2023-05-08T10:42:05;101666.91;;;15.48;70.13
30636;BME280;17400;52.392;9.750;2023-05-08T10:44:33;101676.13;;;15.47;68.93
30636;BME280;17400;52.392;9.750;2023-05-08T10:47:08;101680.31;;;15.43;71.04
30636;BME280;17400;52.392;9.750;2023-05-08T10:49:42;101670.03;;;15.52;71.55
30636;BME280;17400;52.392;9.750;2023-05-08T10:52:17;101671.09;;;15.51;69.88
30636;BME280;17400;52.392;9.750;2023-05-08T10:55:07;101667.50;;;15.43;69.03
30636;BME280;17400;52.392;9.750;2023-05-08T10:57:35;101671.91;;;15.44;71.00
30636;BME280;17400;52.392;9.750;2023-05-08T11:00:04;101663.94;;;15.49;72.22
30636;BME280;17400;52.392;9.750;2023-05-08T11:02:33;101659.34;;;15.57;73.99
30636;BME280;17400;52.392;9.750;2023-05-08T11:05:16;101667.75;;;15.62;71.40
30636;BME280;17400;52.392;9.750;2023-05-08T11:07:54;101667.31;;;15.65;67.94
30636;BME280;17400;52.392;9.750;2023-05-08T11:10:28;101659.56;;;15.75;69.19
30636;BME280;17400;52.392;9.750;2023-05-08T11:12:57;101661.47;;;15.75;66.96
30636;BME280;17400;52.392;9.750;2023-05-08T11:15:35;101660.25;;;15.84;68.22
30636;BME280;17400;52.392;9.750;2023-05-08T11:18:08;101660.25;;;15.84;69.80
30636;BME280;17400;52.392;9.750;2023-05-08T11:20:37;101655.22;;;15.88;69.96
30636;BME280;17400;52.392;9.750;2023-05-08T11:23:20;101656.03;;;15.95;68.82
30636;BME280;17400;52.392;9.750;2023-05-08T11:25:58;101649.97;;;16.06;65.83
30636;BME280;17400;52.392;9.750;2023-05-08T11:28:27;101651.22;;;16.10;66.63
30636;BME280;17400;52.392;9.750;2023-05-08T11:30:55;101658.78;;;16.08;67.82
30636;BME280;17400;52.392;9.750;2023-05-08T11:33:28;101650.56;;;16.22;65.37
30636;BME280;17400;52.392;9.750;2023-05-08T11:35:58;101651.84;;;16.32;64.50
30636;BME280;17400;52.392;9.750;2023-05-08T11:38:29;101648.22;;;16.45;62.62
30636;BME280;17400;52.392;9.750;2023-05-08T11:41:04;101650.94;;;16.45;62.33
30636;BME280;17400;52.392;9.750;2023-05-08T11:44:00;101637.66;;;16.62;62.39
30636;BME280;17400;52.392;9.750;2023-05-08T11:46:38;101637.41;;;16.91;62.67
30636;BME280;17400;52.392;9.750;2023-05-08T11:49:11;101641.34;;;17.02;62.32
30636;BME280;17400;52.392;9.750;2023-05-08T11:51:41;101635.59;;;17.17;61.96
30636;BME280;17400;52.392;9.750;2023-05-08T11:54:14;101643.53;;;17.25;62.26
30636;BME280;17400;52.392;9.750;2023-05-08T11:56:44;101636.75;;;17.34;59.92
30636;BME280;17400;52.392;9.750;2023-05-08T11:59:14;101636.50;;;17.42;58.89
30636;BME280;17400;52.392;9.750;2023-05-08T12:01:42;101643.34;;;17.58;59.13
30636;BME280;17400;52.392;9.750;2023-05-08T12:04:23;101638.31;;;17.80;57.94
30636;BME280;17400;52.392;9.750;2023-05-08T12:06:56;101649.34;;;17.99;56.51
30636;BME280;17400;52.392;9.750;2023-05-08T12:09:23;101652.84;;;18.13;55.01
30636;BME280;17400;52.392;9.750;2023-05-08T12:11:55;101652.25;;;18.48;55.10
30636;BME280;17400;52.392;9.750;2023-05-08T12:14:23;101650.91;;;18.57;55.44
30636;BME280;17400;52.392;9.750;2023-05-08T12:16:51;101645.94;;;18.47;55.26
30636;BME280;17400;52.392;9.750;2023-05-08T12:19:19;101654.34;;;18.53;55.08
30636;BME280;17400;52.392;9.750;2023-05-08T12:21:48;101644.81;;;18.37;56.25
30636;BME280;17400;52.392;9.750;2023-05-08T12:24:16;101640.31;;;18.61;56.56
30636;BME280;17400;52.392;9.750;2023-05-08T12:26:48;101636.28;;;18.63;54.27
30636;BME280;17400;52.392;9.750;2023-05-08T12:29:19;101638.03;;;18.76;54.66
30636;BME280;17400;52.392;9.750;2023-05-08T12:31:47;101637.00;;;18.96;53.17
30636;BME280;17400;52.392;9.750;2023-05-08T12:34:15;101639.84;;;18.82;53.88
30636;BME280;17400;52.392;9.750;2023-05-08T12:36:43;101637.91;;;18.90;54.19
30636;BME280;17400;52.392;9.750;2023-05-08T12:39:13;101642.69;;;18.94;54.28
30636;BME280;17400;52.392;9.750;2023-05-08T12:41:45;101638.94;;;19.07;54.17
30636;BME280;17400;52.392;9.750;2023-05-08T12:44:21;101636.25;;;19.19;53.87
30636;BME280;17400;52.392;9.750;2023-05-08T12:46:49;101638.66;;;19.27;53.38
30636;BME280;17400;52.392;9.750;2023-05-08T12:49:28;101628.81;;;19.38;53.75
30636;BME280;17400;52.392;9.750;2023-05-08T12:52:04;101646.34;;;19.37;52.68
30636;BME280;17400;52.392;9.750;2023-05-08T12:54:35;101643.84;;;19.36;51.76
30636;BME280;17400;52.392;9.750;2023-05-08T12:57:10;101641.34;;;19.46;52.17
30636;BME280;17400;52.392;9.750;2023-05-08T12:59:38;101644.34;;;19.44;52.24
30636;BME280;17400;52.392;9.750;2023-05-08T13:02:14;101631.50;;;19.57;51.97
30636;BME280;17400;52.392;9.750;2023-05-08T13:04:43;101634.50;;;19.79;52.09
30636;BME280;17400;52.392;9.750;2023-05-08T13:07:11;101633.66;;;19.67;50.34